Time;durP1;ratioP1;P1;durP2;ratioP2;P2;SDS_P1;SDS_P2;PMS_P1;PMS_P2;Temp;Humidity;BMP_temperature;BMP_pressure;BME280_temperature;BME280_humidity;BME280_pressure;Samples;Min_cycle;Max_cycle;Signal;HPM_P1;HPM_P2
2023/12/15 00:00:01;;;;;;;75.82;30.65;;;-0.10;99.90;;;;;;5033195;28;20028;-73
2023/12/15 00:02:26;;;;;;;60.75;24.27;;;-0.20;99.90;;;;;;5033142;28;20067;-74
2023/12/15 00:04:52;;;;;;;62.70;22.85;;;-0.20;99.90;;;;;;5032138;28;20485;-76
2023/12/15 00:07:18;;;;;;;74.22;29.70;;;-0.20;99.90;;;;;;5031924;28;20022;-77
2023/12/15 00:09:43;;;;;;;65.90;26.10;;;-0.30;99.90;;;;;;5028356;28;20048;-76
2023/12/15 00:12:09;;;;;;;61.92;26.30;;;-0.30;99.90;;;;;;5033290;28;20105;-73
2023/12/15 00:14:34;;;;;;;64.55;24.85;;;-0.30;99.90;;;;;;5033084;28;20029;-73
2023/12/15 00:17:01;;;;;;;51.47;22.17;;;-0.30;99.90;;;;;;5033098;28;20029;-77
2023/12/15 00:19:26;;;;;;;61.35;25.33;;;-0.30;99.90;;;;;;5028136;28;20013;-77
2023/12/15 00:21:52;;;;;;;67.65;24.42;;;-0.40;99.90;;;;;;5015002;28;20075;-74
2023/12/15 00:24:18;;;;;;;59.15;23.60;;;-0.40;99.90;;;;;;5032361;28;20530;-74
2023/12/15 00:26:43;;;;;;;58.97;23.20;;;-0.40;99.90;;;;;;5031494;28;20383;-73
2023/12/15 00:29:09;;;;;;;49.08;23.60;;;-0.50;99.90;;;;;;5032668;28;20087;-76
2023/12/15 00:31:35;;;;;;;49.10;21.75;;;-0.40;99.90;;;;;;5032912;28;20026;-77
2023/12/15 00:34:00;;;;;;;50.05;21.40;;;-0.40;99.90;;;;;;5025732;28;20054;-76
2023/12/15 00:36:27;;;;;;;57.22;25.75;;;-0.40;99.90;;;;;;5026564;28;20088;-73
2023/12/15 00:38:52;;;;;;;49.47;20.00;;;-0.40;99.90;;;;;;5032717;28;20021;-76
2023/12/15 00:41:18;;;;;;;41.45;18.13;;;-0.50;99.90;;;;;;5031010;28;20052;-73
2023/12/15 00:43:44;;;;;;;50.97;23.88;;;-0.40;99.90;;;;;;5032163;28;20108;-74
2023/12/15 00:46:09;;;;;;;39.40;19.52;;;-0.40;99.90;;;;;;5032600;28;20521;-74
2023/12/15 00:48:35;;;;;;;33.50;17.27;;;-0.50;99.90;;;;;;5032420;28;20041;-73
2023/12/15 00:51:01;;;;;;;32.25;15.02;;;-0.50;99.90;;;;;;5032494;28;20089;-73
2023/12/15 00:53:32;;;;;;;39.60;19.25;;;-0.50;99.90;;;;;;5047866;28;20387;-74
2023/12/15 00:56:01;;;;;;;39.58;19.67;;;-0.50;99.90;;;;;;5032177;28;20737;-73
2023/12/15 00:58:27;;;;;;;36.50;19.52;;;-0.50;99.90;;;;;;5032399;28;20025;-77
2023/12/15 01:00:52;;;;;;;33.70;17.38;;;-0.50;99.90;;;;;;5047841;28;20029;-73
2023/12/15 01:03:18;;;;;;;32.17;16.95;;;-0.50;99.90;;;;;;5032391;28;20100;-75
2023/12/15 01:05:44;;;;;;;43.75;20.08;;;-0.50;99.90;;;;;;5031060;28;20025;-74
2023/12/15 01:08:09;;;;;;;41.42;18.10;;;-0.40;99.90;;;;;;5027452;28;20025;-73
2023/12/15 01:10:35;;;;;;;47.03;17.92;;;-0.40;99.90;;;;;;5030990;28;20482;-74
2023/12/15 01:13:00;;;;;;;41.50;17.90;;;-0.50;99.90;;;;;;5047652;28;20108;-73
2023/12/15 01:15:26;;;;;;;37.80;18.92;;;-0.50;99.90;;;;;;5032232;28;20041;-73
2023/12/15 01:17:51;;;;;;;37.97;16.63;;;-0.50;99.90;;;;;;5031721;28;20041;-73
2023/12/15 01:20:17;;;;;;;35.38;15.25;;;-0.50;99.90;;;;;;5027866;28;20026;-77
2023/12/15 01:22:43;;;;;;;35.70;15.52;;;-0.50;99.90;;;;;;5031604;28;20024;-77
2023/12/15 01:25:10;;;;;;;32.78;14.98;;;-0.50;99.90;;;;;;5032149;28;20495;-78
2023/12/15 01:27:35;;;;;;;31.92;15.90;;;-0.50;99.90;;;;;;5027381;28;20014;-74
2023/12/15 01:30:01;;;;;;;32.00;15.55;;;-0.50;99.90;;;;;;5026141;28;20025;-73
2023/12/15 01:32:27;;;;;;;37.65;16.42;;;-0.50;99.90;;;;;;5032080;28;20041;-77
2023/12/15 01:34:52;;;;;;;39.97;18.25;;;-0.50;99.90;;;;;;5032119;28;20137;-77
2023/12/15 01:37:18;;;;;;;40.65;17.00;;;-0.50;99.90;;;;;;5047489;28;20026;-77
2023/12/15 01:39:44;;;;;;;37.80;17.92;;;-0.50;99.90;;;;;;5032060;28;20041;-77
2023/12/15 01:42:09;;;;;;;40.95;17.55;;;-0.60;99.90;;;;;;5031874;28;20483;-75
2023/12/15 01:44:35;;;;;;;31.88;14.95;;;-0.60;99.90;;;;;;5030941;28;20013;-74
2023/12/15 01:47:01;;;;;;;30.20;16.05;;;-0.60;99.90;;;;;;5031984;28;20055;-77
2023/12/15 01:49:28;;;;;;;35.85;16.77;;;-0.60;99.90;;;;;;5027562;28;20022;-73
2023/12/15 01:51:54;;;;;;;32.35;17.10;;;-0.60;99.90;;;;;;5029670;28;20159;-76
2023/12/15 01:54:20;;;;;;;31.67;15.35;;;-0.60;99.90;;;;;;5034525;28;20101;-77
2023/12/15 01:56:46;;;;;;;33.78;16.38;;;-0.50;99.90;;;;;;5030710;28;20022;-76
2023/12/15 01:59:12;;;;;;;34.85;17.50;;;-0.50;99.90;;;;;;5028133;28;20093;-73
2023/12/15 02:01:37;;;;;;;35.45;14.32;;;-0.50;99.90;;;;;;5034711;28;20024;-77
2023/12/15 02:04:03;;;;;;;37.60;16.27;;;-0.60;99.90;;;;;;5040292;28;20126;-73
2023/12/15 02:06:29;;;;;;;35.60;18.75;;;-0.60;99.90;;;;;;5035276;28;20021;-76
2023/12/15 02:08:54;;;;;;;34.45;17.05;;;-0.60;99.90;;;;;;5035460;28;20100;-73
2023/12/15 02:11:20;;;;;;;33.10;16.33;;;-0.60;99.90;;;;;;5022132;28;20029;-74
2023/12/15 02:13:46;;;;;;;37.97;17.98;;;-0.60;99.90;;;;;;5050818;28;20112;-77
2023/12/15 02:16:11;;;;;;;34.30;17.42;;;-0.60;99.90;;;;;;5028315;28;20088;-77
2023/12/15 02:18:37;;;;;;;31.35;15.55;;;-0.60;99.90;;;;;;5042374;28;20033;-73
2023/12/15 02:21:02;;;;;;;29.17;15.93;;;-0.60;99.90;;;;;;5035194;28;20014;-73
2023/12/15 02:23:28;;;;;;;26.58;14.23;;;-0.70;99.90;;;;;;5035209;28;20064;-77
2023/12/15 02:25:54;;;;;;;30.63;14.40;;;-0.70;99.90;;;;;;5030550;28;20014;-76
2023/12/15 02:28:19;;;;;;;27.35;14.68;;;-0.70;99.90;;;;;;5033952;28;20029;-74
2023/12/15 02:30:45;;;;;;;24.80;13.55;;;-0.70;99.90;;;;;;5050378;28;20017;-73
2023/12/15 02:33:11;;;;;;;29.02;13.38;;;-0.70;99.90;;;;;;5030332;28;20060;-74
2023/12/15 02:35:37;;;;;;;26.00;12.15;;;-0.70;99.90;;;;;;5033029;28;20030;-74
2023/12/15 02:38:07;;;;;;;29.02;13.63;;;-0.70;99.90;;;;;;5034651;28;20096;-73
2023/12/15 02:40:37;;;;;;;20.95;12.45;;;-0.60;99.90;;;;;;5033276;28;20489;-74
2023/12/15 02:43:02;;;;;;;25.77;12.15;;;-0.60;99.90;;;;;;5030098;28;20026;-77
2023/12/15 02:45:28;;;;;;;22.98;12.20;;;-0.60;99.90;;;;;;5033216;28;20021;-74
2023/12/15 02:47:54;;;;;;;22.35;12.88;;;-0.60;99.90;;;;;;5050431;28;20017;-74
2023/12/15 02:50:19;;;;;;;25.85;12.98;;;-0.60;99.90;;;;;;5049967;28;20036;-73
2023/12/15 02:52:45;;;;;;;21.45;11.40;;;-0.60;99.90;;;;;;5034721;28;20095;-73
2023/12/15 02:55:13;;;;;;;23.65;12.60;;;-0.60;99.90;;;;;;5034351;28;20741;-74
2023/12/15 02:57:39;;;;;;;21.17;11.05;;;-0.60;99.90;;;;;;5050037;28;20119;-76
2023/12/15 03:00:05;;;;;;;19.60;10.13;;;-0.60;99.90;;;;;;5029876;28;20034;-74
2023/12/15 03:02:31;;;;;;;22.27;11.32;;;-0.50;99.90;;;;;;5030548;28;20022;-74
2023/12/15 03:04:57;;;;;;;19.35;11.25;;;-0.60;99.90;;;;;;5033802;28;20719;-77
2023/12/15 03:07:22;;;;;;;19.80;11.18;;;-0.50;99.90;;;;;;5036093;28;20116;-77
2023/12/15 03:09:48;;;;;;;20.83;12.05;;;-0.50;99.90;;;;;;5032750;28;20021;-73
2023/12/15 03:12:14;;;;;;;17.85;9.98;;;-0.50;99.90;;;;;;5028110;28;20036;-74
2023/12/15 03:14:39;;;;;;;18.10;12.25;;;-0.40;99.90;;;;;;5033982;28;20029;-74
2023/12/15 03:17:05;;;;;;;16.88;10.00;;;-0.50;99.90;;;;;;5029600;28;20025;-74
2023/12/15 03:19:30;;;;;;;18.70;10.20;;;-0.50;99.90;;;;;;5033589;28;20049;-74
2023/12/15 03:21:56;;;;;;;19.30;10.35;;;-0.50;99.90;;;;;;5034047;28;20022;-77
2023/12/15 03:24:21;;;;;;;16.63;9.40;;;-0.50;99.90;;;;;;5032149;28;20533;-73
2023/12/15 03:26:47;;;;;;;15.55;8.85;;;-0.50;99.90;;;;;;5033413;28;20020;-73
2023/12/15 03:29:13;;;;;;;17.40;9.57;;;-0.40;99.90;;;;;;5034072;28;20032;-74
2023/12/15 03:31:41;;;;;;;14.73;8.70;;;-0.40;99.90;;;;;;5033618;28;20017;-73
2023/12/15 03:34:07;;;;;;;17.58;9.00;;;-0.40;99.90;;;;;;5033878;28;20099;-73
2023/12/15 03:36:38;;;;;;;15.98;9.23;;;-0.40;99.90;;;;;;5032267;28;20521;-76
2023/12/15 03:39:07;;;;;;;17.05;9.57;;;-0.40;99.90;;;;;;5029983;28;20018;-76
2023/12/15 03:41:33;;;;;;;14.05;8.50;;;-0.50;99.90;;;;;;5033489;28;20025;-74
2023/12/15 03:43:59;;;;;;;14.65;8.95;;;-0.50;99.90;;;;;;5033696;28;20022;-76
2023/12/15 03:46:24;;;;;;;15.05;8.80;;;-0.50;99.90;;;;;;5019970;28;20025;-74
2023/12/15 03:48:50;;;;;;;15.98;8.90;;;-0.50;99.90;;;;;;5033451;28;20017;-73
2023/12/15 03:51:16;;;;;;;14.13;9.10;;;-0.50;99.90;;;;;;5028615;28;20026;-77
2023/12/15 03:53:41;;;;;;;17.45;10.15;;;-0.50;99.90;;;;;;5026811;28;20029;-74
2023/12/15 03:56:08;;;;;;;14.75;8.20;;;-0.50;99.90;;;;;;5033272;28;20047;-73
2023/12/15 03:58:33;;;;;;;16.45;9.15;;;-0.50;99.90;;;;;;5033086;28;20021;-74
2023/12/15 04:00:59;;;;;;;14.35;8.95;;;-0.50;99.90;;;;;;5033247;28;20059;-74
2023/12/15 04:03:24;;;;;;;16.58;10.18;;;-0.50;99.90;;;;;;5033105;28;20140;-77
2023/12/15 04:05:50;;;;;;;17.23;9.90;;;-0.50;99.90;;;;;;5033226;28;20068;-77
2023/12/15 04:08:16;;;;;;;19.98;10.48;;;-0.50;99.90;;;;;;5033206;28;20092;-74
2023/12/15 04:10:41;;;;;;;18.65;9.65;;;-0.50;99.90;;;;;;5032899;28;20022;-77
2023/12/15 04:13:07;;;;;;;21.17;11.35;;;-0.50;99.90;;;;;;5033150;28;20060;-77
2023/12/15 04:15:33;;;;;;;18.67;11.20;;;-0.50;99.90;;;;;;5033211;28;20045;-78
2023/12/15 04:18:02;;;;;;;19.00;10.13;;;-0.50;99.90;;;;;;5032118;28;20360;-77
2023/12/15 04:20:28;;;;;;;16.98;10.07;;;-0.50;99.90;;;;;;5032937;28;20061;-78
2023/12/15 04:22:53;;;;;;;21.95;12.05;;;-0.50;99.90;;;;;;5028524;28;20064;-77
2023/12/15 04:25:19;;;;;;;21.55;10.50;;;-0.60;99.90;;;;;;5028232;28;20040;-74
2023/12/15 04:27:46;;;;;;;19.10;10.77;;;-0.60;99.90;;;;;;5048086;28;20463;-76
2023/12/15 04:30:12;;;;;;;21.08;12.82;;;-0.60;99.90;;;;;;5033190;28;20468;-74
2023/12/15 04:32:38;;;;;;;19.85;11.25;;;-0.60;99.90;;;;;;5032299;28;20053;-74
2023/12/15 04:35:04;;;;;;;22.45;12.35;;;-0.60;99.90;;;;;;5032568;28;20078;-77
2023/12/15 04:37:29;;;;;;;27.40;15.02;;;-0.60;99.90;;;;;;5032722;28;20064;-74
2023/12/15 04:39:55;;;;;;;29.65;15.45;;;-0.60;99.90;;;;;;5031584;28;20017;-74
2023/12/15 04:42:20;;;;;;;21.73;12.73;;;-0.60;99.90;;;;;;5032241;28;20032;-74
2023/12/15 04:44:46;;;;;;;22.45;11.23;;;-0.60;99.90;;;;;;5031535;28;20104;-73
2023/12/15 04:47:12;;;;;;;20.77;11.15;;;-0.60;99.90;;;;;;5029433;28;20022;-74
2023/12/15 04:49:38;;;;;;;22.00;11.63;;;-0.60;99.90;;;;;;5032790;28;20045;-74
2023/12/15 04:52:04;;;;;;;21.98;10.68;;;-0.60;99.90;;;;;;5031255;28;20474;-76
2023/12/15 04:54:30;;;;;;;26.17;12.75;;;-0.60;99.90;;;;;;5038969;28;20037;-75
2023/12/15 04:56:55;;;;;;;25.05;12.48;;;-0.60;99.90;;;;;;5032527;28;20033;-75
2023/12/15 04:59:21;;;;;;;326.95;114.43;;;-0.60;99.90;;;;;;5046710;28;20479;-76
2023/12/15 05:01:47;;;;;;;559.25;215.80;;;-0.60;99.90;;;;;;5027926;28;20140;-74
2023/12/15 05:04:12;;;;;;;61.30;24.42;;;-0.60;99.90;;;;;;5028865;28;20390;-74
2023/12/15 05:06:38;;;;;;;361.65;120.88;;;-0.60;99.90;;;;;;5032397;28;20018;-74
2023/12/15 05:09:04;;;;;;;548.47;194.00;;;-0.60;99.90;;;;;;5032486;28;20601;-76
2023/12/15 05:11:34;;;;;;;863.72;337.52;;;-0.70;99.90;;;;;;5027815;28;20049;-74
2023/12/15 05:14:00;;;;;;;1014.95;386.15;;;-0.60;99.90;;;;;;5029357;28;20360;-74
2023/12/15 05:16:25;;;;;;;1297.03;472.42;;;-0.60;99.90;;;;;;5032185;28;20052;-77
2023/12/15 05:18:51;;;;;;;1455.32;520.45;;;-0.60;99.90;;;;;;5047795;28;20021;-77
2023/12/15 05:21:17;;;;;;;502.05;172.23;;;-0.60;99.90;;;;;;5021611;28;20017;-74
2023/12/15 05:23:43;;;;;;;714.70;257.80;;;-0.60;99.90;;;;;;5029707;28;20052;-76
2023/12/15 05:26:11;;;;;;;884.72;334.52;;;-0.60;99.90;;;;;;5024940;28;20061;-77
2023/12/15 05:28:36;;;;;;;760.28;277.63;;;-0.60;99.90;;;;;;5033450;28;20052;-77
2023/12/15 05:31:02;;;;;;;895.20;325.38;;;-0.60;99.90;;;;;;5036106;28;20045;-74
2023/12/15 05:33:28;;;;;;;1108.38;413.33;;;-0.60;99.90;;;;;;5034722;28;20050;-76
2023/12/15 05:35:53;;;;;;;761.78;281.30;;;-0.60;99.90;;;;;;5035648;28;20104;-75
2023/12/15 05:38:19;;;;;;;655.28;232.30;;;-0.50;99.90;;;;;;5051334;28;20021;-77
2023/12/15 05:40:45;;;;;;;171.07;55.60;;;-0.60;99.90;;;;;;5025277;28;20129;-77
2023/12/15 05:43:10;;;;;;;154.32;50.17;;;-0.50;99.90;;;;;;5035458;28;20391;-77
2023/12/15 05:45:36;;;;;;;133.52;45.75;;;-0.50;99.90;;;;;;5050709;28;20528;-77
2023/12/15 05:48:02;;;;;;;251.75;83.20;;;-0.60;99.90;;;;;;5026011;28;20105;-74
2023/12/15 05:50:27;;;;;;;305.85;91.32;;;-0.60;99.90;;;;;;5028866;28;20033;-75
2023/12/15 05:52:54;;;;;;;215.02;67.55;;;-0.60;99.90;;;;;;5033229;28;20027;-73
2023/12/15 05:55:20;;;;;;;394.33;123.95;;;-0.60;99.90;;;;;;5033262;28;20040;-74
2023/12/15 05:57:45;;;;;;;75.07;30.52;;;-0.70;99.90;;;;;;5035433;28;20022;-73
2023/12/15 06:00:11;;;;;;;359.20;110.85;;;-0.70;99.90;;;;;;5034554;28;20021;-74
2023/12/15 06:02:37;;;;;;;102.72;37.28;;;-0.70;99.90;;;;;;5029409;28;20030;-74
2023/12/15 06:05:03;;;;;;;68.55;27.35;;;-0.70;99.90;;;;;;5025671;28;20025;-74
2023/12/15 06:07:31;;;;;;;217.98;66.10;;;-0.70;99.90;;;;;;5035074;28;20475;-74
2023/12/15 06:09:56;;;;;;;523.17;171.18;;;-0.70;99.90;;;;;;5034699;28;20029;-74
2023/12/15 06:12:22;;;;;;;238.95;72.25;;;-0.70;99.90;;;;;;5034428;28;20022;-73
2023/12/15 06:14:48;;;;;;;213.20;68.57;;;-0.70;99.90;;;;;;5029015;28;20045;-75
2023/12/15 06:17:13;;;;;;;384.55;119.30;;;-0.60;99.90;;;;;;5025170;28;20026;-74
2023/12/15 06:19:40;;;;;;;224.77;74.97;;;-0.70;99.90;;;;;;5033553;28;20025;-74
2023/12/15 06:22:06;;;;;;;108.78;40.63;;;-0.70;99.90;;;;;;5034779;28;20029;-77
2023/12/15 06:24:31;;;;;;;52.03;21.48;;;-0.70;99.90;;;;;;5034304;28;20021;-77
2023/12/15 06:26:57;;;;;;;46.05;21.00;;;-0.70;99.90;;;;;;5034872;28;20064;-77
2023/12/15 06:29:23;;;;;;;79.47;34.00;;;-0.60;99.90;;;;;;5034653;28;20032;-77
2023/12/15 06:31:48;;;;;;;64.97;27.60;;;-0.60;99.90;;;;;;5025464;28;20029;-77
2023/12/15 06:34:14;;;;;;;48.45;21.35;;;-0.60;99.90;;;;;;5046544;28;20044;-77
2023/12/15 06:36:41;;;;;;;39.30;18.35;;;-0.60;99.90;;;;;;5028446;28;20041;-74
2023/12/15 06:39:07;;;;;;;38.38;19.63;;;-0.60;99.90;;;;;;5029433;28;20028;-77
2023/12/15 06:41:32;;;;;;;34.67;18.23;;;-0.60;99.90;;;;;;5023535;28;20025;-77
2023/12/15 06:43:58;;;;;;;39.83;19.63;;;-0.60;99.90;;;;;;5033367;28;20017;-74
2023/12/15 06:46:24;;;;;;;39.30;20.45;;;-0.60;99.90;;;;;;5033312;28;20052;-77
2023/12/15 06:48:50;;;;;;;38.08;21.42;;;-0.60;99.90;;;;;;5030157;28;20045;-78
2023/12/15 06:51:16;;;;;;;51.88;24.63;;;-0.50;99.90;;;;;;5032407;28;20056;-78
2023/12/15 06:53:41;;;;;;;37.45;16.25;;;-0.60;99.90;;;;;;5032694;28;20108;-78
2023/12/15 06:56:07;;;;;;;58.95;25.95;;;-0.70;99.90;;;;;;5030193;28;20076;-78
2023/12/15 06:58:33;;;;;;;49.17;24.55;;;-0.70;99.90;;;;;;5028877;28;20025;-78
2023/12/15 07:00:59;;;;;;;43.38;20.98;;;-0.70;99.90;;;;;;5027416;28;20013;-73
2023/12/15 07:03:25;;;;;;;61.30;31.58;;;-0.80;99.90;;;;;;5029053;28;20026;-74
2023/12/15 07:05:50;;;;;;;64.30;31.20;;;-0.80;99.90;;;;;;5032531;28;20009;-77
2023/12/15 07:08:16;;;;;;;60.20;26.40;;;-0.80;99.90;;;;;;5032479;28;20017;-74
2023/12/15 07:10:41;;;;;;;41.03;20.15;;;-0.80;99.90;;;;;;5032536;28;20120;-75
2023/12/15 07:13:07;;;;;;;69.32;30.98;;;-0.80;99.90;;;;;;5049664;28;20025;-77
2023/12/15 07:15:33;;;;;;;82.07;35.70;;;-0.80;99.90;;;;;;5026338;28;20034;-78
2023/12/15 07:17:59;;;;;;;79.28;35.88;;;-0.80;99.90;;;;;;5032192;28;20018;-75
2023/12/15 07:20:25;;;;;;;71.28;33.35;;;-0.80;99.90;;;;;;5033455;28;20080;-75
2023/12/15 07:22:51;;;;;;;116.70;50.47;;;-0.80;99.90;;;;;;5033726;28;20053;-78
2023/12/15 07:25:17;;;;;;;130.75;52.42;;;-0.80;99.90;;;;;;5031711;28;20091;-78
2023/12/15 07:27:43;;;;;;;293.98;107.22;;;-0.70;99.90;;;;;;5031276;28;20021;-78
2023/12/15 07:30:09;;;;;;;263.55;103.35;;;-0.80;99.90;;;;;;5033491;28;20029;-78
2023/12/15 07:32:35;;;;;;;170.13;65.68;;;-0.70;99.90;;;;;;5032805;28;20589;-78
2023/12/15 07:35:01;;;;;;;252.90;91.07;;;-0.70;99.90;;;;;;5031418;28;20033;-78
2023/12/15 07:37:26;;;;;;;188.23;73.35;;;-0.70;99.90;;;;;;5031592;28;20434;-75
2023/12/15 07:39:54;;;;;;;144.32;54.92;;;-0.70;99.90;;;;;;5027804;28;20024;-75
2023/12/15 07:42:20;;;;;;;102.75;39.78;;;-0.70;99.90;;;;;;5030166;28;20520;-78
2023/12/15 07:44:45;;;;;;;64.40;27.90;;;-0.70;99.90;;;;;;5029089;28;20096;-78
2023/12/15 07:47:11;;;;;;;98.85;37.88;;;-0.70;99.90;;;;;;5029869;28;20029;-78
2023/12/15 07:49:37;;;;;;;155.48;60.80;;;-0.60;99.90;;;;;;5027666;28;20025;-78
2023/12/15 07:52:03;;;;;;;143.48;57.63;;;-0.60;99.90;;;;;;5032529;28;20452;-78
2023/12/15 07:54:29;;;;;;;172.40;64.68;;;-0.60;99.90;;;;;;5031429;28;20013;-77
2023/12/15 07:56:56;;;;;;;103.38;43.53;;;-0.60;99.90;;;;;;5031152;28;20426;-75
2023/12/15 07:59:21;;;;;;;118.22;47.33;;;-0.60;99.90;;;;;;5029773;28;20548;-75
2023/12/15 08:01:52;;;;;;;88.68;34.67;;;-0.60;99.90;;;;;;5031621;28;20104;-75
2023/12/15 08:04:18;;;;;;;78.53;35.25;;;-0.60;99.90;;;;;;5029015;28;20026;-75
2023/12/15 08:06:44;;;;;;;91.32;38.78;;;-0.60;99.90;;;;;;5032066;28;20479;-75
2023/12/15 08:09:09;;;;;;;102.47;41.67;;;-0.50;99.90;;;;;;5030283;28;20109;-78
2023/12/15 08:11:35;;;;;;;77.63;33.25;;;-0.50;99.90;;;;;;5022687;28;20034;-78
2023/12/15 08:14:03;;;;;;;113.57;47.28;;;-0.40;99.90;;;;;;5028907;28;20467;-75
2023/12/15 08:16:30;;;;;;;94.97;33.42;;;-0.40;99.90;;;;;;5025077;28;20531;-75
2023/12/15 08:18:56;;;;;;;57.42;22.23;;;-0.40;99.90;;;;;;5026033;28;20017;-75
2023/12/15 08:21:22;;;;;;;48.17;21.27;;;-0.40;99.90;;;;;;5028008;28;20014;-78
2023/12/15 08:23:48;;;;;;;162.07;55.05;;;-0.40;99.90;;;;;;5025751;28;20035;-75
2023/12/15 08:26:26;;;;;;;146.10;49.30;;;-0.40;99.90;;;;;;5030744;28;20104;-75
2023/12/15 08:28:53;;;;;;;127.07;43.38;;;-0.40;99.90;;;;;;5027023;28;20028;-78
2023/12/15 08:31:23;;;;;;;37.47;18.00;;;-0.30;99.90;;;;;;5030166;28;20095;-78
2023/12/15 08:33:49;;;;;;;33.45;17.15;;;-0.40;99.90;;;;;;5031255;28;20502;-78
2023/12/15 08:36:15;;;;;;;60.15;25.20;;;-0.40;99.90;;;;;;5047943;28;20042;-78
2023/12/15 08:38:41;;;;;;;45.60;19.50;;;-0.30;99.90;;;;;;5032909;28;20033;-75
2023/12/15 08:41:07;;;;;;;30.52;15.45;;;-0.30;99.90;;;;;;5032758;28;20091;-77
2023/12/15 08:43:33;;;;;;;107.22;49.13;;;-0.40;99.90;;;;;;5028245;28;20430;-75
2023/12/15 08:45:58;;;;;;;111.53;41.72;;;-0.30;99.90;;;;;;5030753;28;20037;-75
2023/12/15 08:48:24;;;;;;;67.88;29.48;;;-0.30;99.90;;;;;;5032705;28;20030;-75
2023/12/15 08:50:50;;;;;;;82.22;32.55;;;-0.20;99.90;;;;;;5031208;28;20040;-75
2023/12/15 08:53:18;;;;;;;48.08;24.73;;;-0.20;99.90;;;;;;5032263;28;20084;-78
2023/12/15 08:55:44;;;;;;;60.05;26.50;;;-0.10;99.90;;;;;;5031064;28;20119;-78
2023/12/15 08:58:09;;;;;;;51.40;22.95;;;-0.10;99.90;;;;;;5032665;28;20040;-75
2023/12/15 09:00:36;;;;;;;48.80;21.90;;;0.00;99.90;;;;;;5032541;28;20025;-75
2023/12/15 09:03:01;;;;;;;50.28;24.15;;;0.00;99.90;;;;;;5033130;28;20022;-75
2023/12/15 09:05:27;;;;;;;60.15;27.25;;;0.00;99.90;;;;;;5037721;28;20021;-77
2023/12/15 09:07:53;;;;;;;43.55;22.50;;;0.10;99.90;;;;;;5039155;28;20151;-78
2023/12/15 09:10:20;;;;;;;50.28;25.67;;;0.10;99.90;;;;;;5037367;28;20045;-75
2023/12/15 09:12:46;;;;;;;46.15;21.73;;;0.10;99.90;;;;;;5039018;28;20025;-78
2023/12/15 09:15:12;;;;;;;44.33;23.00;;;0.10;99.90;;;;;;5039085;28;20052;-75
2023/12/15 09:17:39;;;;;;;50.03;23.83;;;0.20;99.90;;;;;;5034559;28;20080;-78
2023/12/15 09:20:05;;;;;;;44.40;23.35;;;0.20;99.90;;;;;;5039164;28;20139;-75
2023/12/15 09:22:31;;;;;;;47.35;23.17;;;0.20;99.90;;;;;;5038970;28;20112;-75
2023/12/15 09:24:56;;;;;;;45.65;23.23;;;0.20;99.90;;;;;;5038907;28;20113;-77
2023/12/15 09:27:22;;;;;;;38.53;19.85;;;0.20;99.90;;;;;;5038930;28;20022;-75
2023/12/15 09:29:48;;;;;;;40.67;21.65;;;0.20;99.90;;;;;;5037513;28;20087;-78
2023/12/15 09:32:13;;;;;;;56.92;28.98;;;0.20;99.90;;;;;;5038686;28;20120;-78
2023/12/15 09:34:39;;;;;;;40.40;20.67;;;0.30;99.90;;;;;;5038533;28;20026;-75
2023/12/15 09:37:04;;;;;;;36.58;18.42;;;0.20;99.90;;;;;;5039016;28;20518;-75
2023/12/15 09:39:30;;;;;;;34.05;18.08;;;0.20;99.90;;;;;;5038719;28;20060;-75
2023/12/15 09:41:56;;;;;;;34.13;17.08;;;0.30;99.90;;;;;;5038810;28;20021;-78
2023/12/15 09:44:21;;;;;;;35.47;17.08;;;0.30;99.90;;;;;;5034071;28;20053;-75
2023/12/15 09:46:48;;;;;;;38.15;17.13;;;0.30;99.90;;;;;;5032024;28;20065;-75
2023/12/15 09:49:17;;;;;;;32.38;16.55;;;0.30;99.90;;;;;;5034212;28;20018;-77
2023/12/15 09:51:49;;;;;;;45.30;21.13;;;0.40;99.90;;;;;;5031024;28;20071;-75
2023/12/15 09:54:15;;;;;;;37.33;17.92;;;0.40;99.90;;;;;;5034274;28;20014;-75
2023/12/15 09:56:41;;;;;;;33.25;16.60;;;0.50;99.90;;;;;;5048318;28;20071;-78
2023/12/15 09:59:07;;;;;;;34.25;18.20;;;0.50;99.90;;;;;;5038859;28;20049;-78
2023/12/15 10:01:33;;;;;;;34.08;16.02;;;0.50;99.90;;;;;;5035063;28;20153;-75
2023/12/15 10:03:59;;;;;;;32.60;17.05;;;0.60;99.90;;;;;;5054022;28;20021;-78
2023/12/15 10:06:25;;;;;;;144.98;66.88;;;0.60;99.90;;;;;;5038404;28;20049;-78
2023/12/15 10:08:51;;;;;;;60.45;27.30;;;0.70;99.90;;;;;;5054061;28;20056;-75
2023/12/15 10:11:18;;;;;;;37.92;18.65;;;0.80;99.90;;;;;;5038414;28;20036;-77
2023/12/15 10:13:44;;;;;;;32.00;17.15;;;0.80;99.90;;;;;;5038709;28;20049;-78
2023/12/15 10:16:11;;;;;;;56.72;26.00;;;0.80;99.90;;;;;;5032329;28;20065;-78
2023/12/15 10:18:39;;;;;;;31.77;17.00;;;0.90;99.90;;;;;;5035520;28;20025;-77
2023/12/15 10:21:06;;;;;;;56.58;27.45;;;0.90;99.90;;;;;;5033110;28;20141;-75
2023/12/15 10:23:32;;;;;;;42.58;20.88;;;0.90;99.90;;;;;;5035199;28;20021;-76
2023/12/15 10:26:06;;;;;;;38.20;18.90;;;0.90;99.90;;;;;;5034823;28;20032;-79
2023/12/15 10:28:39;;;;;;;55.65;28.05;;;0.90;99.90;;;;;;5030593;28;20029;-78
2023/12/15 10:31:06;;;;;;;71.20;33.90;;;0.90;99.90;;;;;;5020608;28;20046;-75
2023/12/15 10:33:33;;;;;;;66.63;28.48;;;0.90;99.90;;;;;;5044721;28;20056;-76
2023/12/15 10:36:03;;;;;;;85.10;38.10;;;0.90;99.90;;;;;;5028477;28;20096;-75
2023/12/15 10:38:29;;;;;;;51.65;25.10;;;0.80;99.90;;;;;;5032833;28;20594;-79
2023/12/15 10:40:57;;;;;;;79.43;32.63;;;0.80;99.90;;;;;;5033094;28;20025;-78
2023/12/15 10:43:23;;;;;;;50.88;25.00;;;0.80;99.90;;;;;;5032222;28;20431;-79
2023/12/15 10:45:50;;;;;;;29.15;14.98;;;0.70;99.90;;;;;;5026942;28;20038;-78
2023/12/15 10:48:18;;;;;;;32.47;15.63;;;0.60;99.90;;;;;;5026894;28;20017;-78
2023/12/15 10:50:45;;;;;;;52.90;28.45;;;0.50;99.90;;;;;;5032464;28;20036;-75
2023/12/15 10:53:13;;;;;;;54.75;25.17;;;0.50;99.90;;;;;;5030872;28;20033;-78
2023/12/15 10:55:45;;;;;;;57.80;29.25;;;0.50;99.90;;;;;;5031439;28;20376;-76
2023/12/15 10:58:12;;;;;;;67.90;33.60;;;0.50;99.90;;;;;;5030887;28;20104;-76
2023/12/15 11:00:38;;;;;;;52.75;27.30;;;0.40;99.90;;;;;;5029231;28;20056;-76
2023/12/15 11:03:10;;;;;;;62.60;28.70;;;0.50;99.90;;;;;;5031969;28;20091;-77
2023/12/15 11:05:37;;;;;;;62.00;29.83;;;0.50;99.90;;;;;;5031109;28;20037;-76
2023/12/15 11:08:03;;;;;;;91.15;42.88;;;0.50;99.90;;;;;;5029822;28;20022;-77
2023/12/15 11:10:29;;;;;;;57.55;28.38;;;0.50;99.90;;;;;;5032634;28;20071;-77
2023/12/15 11:12:55;;;;;;;57.05;23.88;;;0.60;99.90;;;;;;5031608;28;20033;-77
2023/12/15 11:15:26;;;;;;;43.25;20.52;;;0.50;99.90;;;;;;5028411;28;20076;-75
2023/12/15 11:17:57;;;;;;;52.33;22.42;;;0.40;99.90;;;;;;5030130;28;20593;-75
2023/12/15 11:20:24;;;;;;;51.72;26.70;;;0.40;99.90;;;;;;5019818;28;20407;-76
2023/12/15 11:22:57;;;;;;;44.88;22.30;;;0.50;99.90;;;;;;5028968;28;20097;-76
2023/12/15 11:25:51;;;;;;;41.22;19.25;;;0.60;99.90;;;;;;5023010;28;20872;-76
2023/12/15 11:28:18;;;;;;;35.53;15.57;;;0.60;99.90;;;;;;5021161;28;20022;-76
2023/12/15 11:30:45;;;;;;;30.02;16.23;;;0.60;99.90;;;;;;5023752;28;20048;-75
2023/12/15 11:33:26;;;;;;;33.75;17.13;;;0.60;99.90;;;;;;5024528;28;20053;-77
2023/12/15 11:36:13;;;;;;;54.00;22.45;;;0.60;99.90;;;;;;5039820;28;20049;-78
2023/12/15 11:38:40;;;;;;;32.70;15.77;;;0.60;99.90;;;;;;5026743;28;20018;-77
2023/12/15 11:41:07;;;;;;;38.92;16.58;;;0.60;99.90;;;;;;5031161;28;20041;-77
2023/12/15 11:43:36;;;;;;;41.47;19.73;;;0.60;99.90;;;;;;5031731;28;20021;-77
2023/12/15 11:46:05;;;;;;;61.38;25.40;;;0.70;99.90;;;;;;5018989;28;20032;-76
2023/12/15 11:48:34;;;;;;;45.92;20.83;;;0.70;99.90;;;;;;5032739;28;20026;-78
2023/12/15 11:51:00;;;;;;;47.88;17.40;;;0.80;99.90;;;;;;5033245;28;20032;-78
2023/12/15 11:53:25;;;;;;;60.90;23.98;;;0.70;99.90;;;;;;5048405;28;20108;-75
2023/12/15 11:55:51;;;;;;;42.30;16.08;;;0.80;99.90;;;;;;5031555;28;20033;-75
2023/12/15 11:58:22;;;;;;;74.05;27.13;;;0.70;99.90;;;;;;5048021;28;20475;-77
2023/12/15 12:00:47;;;;;;;78.05;27.83;;;0.80;99.90;;;;;;5024112;28;20028;-78
2023/12/15 12:03:15;;;;;;;43.35;17.45;;;0.80;99.90;;;;;;5032800;28;20025;-78
2023/12/15 12:05:42;;;;;;;63.42;25.80;;;0.80;99.90;;;;;;5032948;28;20020;-75
2023/12/15 12:08:09;;;;;;;47.83;20.35;;;0.80;99.90;;;;;;5032651;28;20022;-78
2023/12/15 12:10:38;;;;;;;49.15;22.15;;;0.90;99.90;;;;;;5030489;28;20030;-78
2023/12/15 12:13:08;;;;;;;26.50;14.32;;;0.80;99.90;;;;;;5032671;28;20026;-78
2023/12/15 12:15:52;;;;;;;49.67;20.45;;;0.70;99.90;;;;;;5028594;28;20554;-75
2023/12/15 12:18:22;;;;;;;29.17;14.00;;;0.80;99.90;;;;;;5024644;28;20022;-78
2023/12/15 12:20:48;;;;;;;52.83;22.05;;;0.70;99.90;;;;;;5031161;28;20013;-78
2023/12/15 12:23:14;;;;;;;50.20;20.42;;;0.70;99.90;;;;;;5031525;28;20124;-76